createdAt,value
2018-07-27T00:00:12.980Z,1012.4
2018-07-27T00:01:13.007Z,1012.35
2018-07-27T00:02:13.032Z,1012.36
2018-07-27T00:03:13.062Z,1012.33
2018-07-27T00:05:13.111Z,1012.32
2018-07-27T00:06:13.135Z,1012.33
2018-07-27T00:07:13.161Z,1012.3
2018-07-27T00:08:13.187Z,1012.32
2018-07-27T00:09:13.213Z,1012.27
2018-07-27T00:10:13.239Z,1012.3
2018-07-27T00:11:13.264Z,1012.3
2018-07-27T00:12:13.291Z,1012.28
2018-07-27T00:13:13.314Z,1012.38
2018-07-27T00:14:13.346Z,1012.31
2018-07-27T00:15:13.369Z,1012.35
2018-07-27T00:16:13.394Z,1012.37
2018-07-27T00:17:13.420Z,1012.33
2018-07-27T00:18:13.445Z,1012.34
2018-07-27T00:19:13.471Z,1012.38
2018-07-27T00:20:13.497Z,1012.36
2018-07-27T00:21:13.524Z,1012.34
2018-07-27T00:22:13.548Z,1012.41
2018-07-27T00:23:13.574Z,1012.4
2018-07-27T00:24:13.599Z,1012.38
2018-07-27T00:25:13.624Z,1012.37
2018-07-27T00:26:13.650Z,1012.35
2018-07-27T00:27:13.676Z,1012.34
2018-07-27T00:28:13.701Z,1012.34
2018-07-27T00:29:13.729Z,1012.33
2018-07-27T00:30:13.753Z,1012.34
2018-07-27T00:31:13.779Z,1012.37
2018-07-27T00:32:13.803Z,1012.35
2018-07-27T00:33:13.829Z,1012.3
2018-07-27T00:34:13.855Z,1012.3
2018-07-27T00:35:13.881Z,1012.28
2018-07-27T00:37:13.933Z,1012.32
2018-07-27T00:38:13.958Z,1012.3
2018-07-27T00:39:13.985Z,1012.37
2018-07-27T00:40:14.008Z,1012.32
2018-07-27T00:41:14.035Z,1012.34
2018-07-27T00:42:14.062Z,1012.36
2018-07-27T00:43:14.086Z,1012.36
2018-07-27T00:44:14.111Z,1012.31
2018-07-27T00:45:14.138Z,1012.32
2018-07-27T00:46:14.163Z,1012.34
2018-07-27T00:47:14.187Z,1012.3
2018-07-27T00:48:14.214Z,1012.32
2018-07-27T00:49:14.240Z,1012.34
2018-07-27T00:50:14.264Z,1012.34
2018-07-27T00:51:14.291Z,1012.32
2018-07-27T00:53:14.342Z,1012.28
2018-07-27T00:54:14.366Z,1012.28
2018-07-27T00:55:14.393Z,1012.28
2018-07-27T00:56:14.418Z,1012.25
2018-07-27T00:57:14.444Z,1012.27
2018-07-27T00:58:14.469Z,1012.27
2018-07-27T00:59:14.493Z,1012.28
2018-07-27T01:00:14.524Z,1012.24
2018-07-27T01:01:14.546Z,1012.24
2018-07-27T01:02:14.571Z,1012.22
2018-07-27T01:03:14.598Z,1012.2
2018-07-27T01:04:14.623Z,1012.22
2018-07-27T01:05:14.647Z,1012.22
2018-07-27T01:06:14.675Z,1012.18
2018-07-27T01:07:14.699Z,1012.22
2018-07-27T01:09:14.748Z,1012.24
2018-07-27T01:10:14.775Z,1012.22
2018-07-27T01:11:14.801Z,1012.18
2018-07-27T01:12:14.827Z,1012.22
2018-07-27T01:13:14.851Z,1012.16
2018-07-27T01:14:14.877Z,1012.18
2018-07-27T01:15:14.902Z,1012.14
2018-07-27T01:16:14.926Z,1012.17
2018-07-27T01:17:14.954Z,1012.14
2018-07-27T01:18:14.979Z,1012.13
2018-07-27T01:19:15.003Z,1012.1
2018-07-27T01:20:15.030Z,1012.12
2018-07-27T01:21:15.055Z,1012.09
2018-07-27T01:22:15.081Z,1012.1
2018-07-27T01:23:15.105Z,1012.1
2018-07-27T01:25:15.160Z,1012.18
2018-07-27T01:26:15.189Z,1012.19
2018-07-27T01:27:15.207Z,1012.15
2018-07-27T01:28:15.232Z,1012.15
2018-07-27T01:29:15.258Z,1012.13
2018-07-27T01:30:15.283Z,1012.16
2018-07-27T01:31:15.308Z,1012.14
2018-07-27T01:32:15.334Z,1012.11
2018-07-27T01:33:15.360Z,1012.15
2018-07-27T01:34:15.387Z,1012.14
2018-07-27T01:35:15.412Z,1012.08
2018-07-27T01:36:15.434Z,1012.1
2018-07-27T01:37:15.462Z,1012.1
2018-07-27T01:38:15.485Z,1012.09
2018-07-27T01:40:15.549Z,1012.09
2018-07-27T01:41:15.563Z,1012.11
2018-07-27T01:42:15.588Z,1012.08
2018-07-27T01:43:15.614Z,1012.09
2018-07-27T01:44:15.639Z,1012.06
2018-07-27T01:45:15.664Z,1012.04
2018-07-27T01:46:15.689Z,1012.06
2018-07-27T01:47:15.716Z,1012.05
2018-07-27T01:48:15.739Z,1012.03
2018-07-27T01:49:15.765Z,1012.02
2018-07-27T01:50:15.791Z,1012.01
2018-07-27T01:51:15.815Z,1012.04
2018-07-27T01:52:15.840Z,1011.99
2018-07-27T01:53:15.866Z,1012.03
2018-07-27T01:54:15.892Z,1012
2018-07-27T01:55:15.917Z,1012.04
2018-07-27T01:56:15.942Z,1012.02
2018-07-27T01:57:15.966Z,1012.03
2018-07-27T01:58:15.993Z,1012.04
2018-07-27T01:59:16.018Z,1012.01
2018-07-27T02:00:16.045Z,1012.01
2018-07-27T02:01:16.069Z,1012
2018-07-27T02:02:16.094Z,1011.97
2018-07-27T02:03:16.128Z,1012.01
2018-07-27T02:04:16.146Z,1012.02
2018-07-27T02:05:16.170Z,1011.99
2018-07-27T02:06:16.197Z,1012.04
2018-07-27T02:07:16.220Z,1012.03
2018-07-27T02:08:16.246Z,1012.02
2018-07-27T02:09:16.271Z,1012.02
2018-07-27T02:10:16.295Z,1012.03
2018-07-27T02:12:16.346Z,1012.05
2018-07-27T02:13:16.372Z,1012.05
2018-07-27T02:14:16.396Z,1012.04
2018-07-27T02:15:16.420Z,1012.02
2018-07-27T02:16:16.448Z,1012.04
2018-07-27T02:17:16.472Z,1012.04
2018-07-27T02:18:16.498Z,1012.03
2018-07-27T02:19:16.523Z,1012.02
2018-07-27T02:20:16.549Z,1012.01
2018-07-27T02:21:16.573Z,1012
2018-07-27T02:22:16.599Z,1011.98
2018-07-27T02:23:16.624Z,1012.01
2018-07-27T02:24:16.649Z,1012
2018-07-27T02:25:16.675Z,1011.94
2018-07-27T02:26:16.700Z,1011.96
2018-07-27T02:28:16.751Z,1011.95
2018-07-27T02:29:16.775Z,1011.92
2018-07-27T02:30:16.800Z,1011.93
2018-07-27T02:31:16.825Z,1011.94
2018-07-27T02:32:16.851Z,1011.94
2018-07-27T02:33:16.887Z,1011.9
2018-07-27T02:34:16.903Z,1011.94
2018-07-27T02:35:16.927Z,1011.91
2018-07-27T02:36:16.951Z,1011.89
2018-07-27T02:37:16.977Z,1011.86
2018-07-27T02:38:17.003Z,1011.88
2018-07-27T02:39:17.038Z,1011.89
2018-07-27T02:40:17.054Z,1011.83
2018-07-27T02:41:17.179Z,1011.86
2018-07-27T02:42:17.103Z,1011.82
2018-07-27T02:44:17.154Z,1011.83
2018-07-27T02:45:17.180Z,1011.77
2018-07-27T02:46:17.205Z,1011.77
2018-07-27T02:47:17.227Z,1011.79
2018-07-27T02:48:17.255Z,1011.74
2018-07-27T02:49:17.285Z,1011.74
2018-07-27T02:50:17.305Z,1011.75
2018-07-27T02:51:17.358Z,1011.77
2018-07-27T02:52:17.354Z,1011.74
2018-07-27T02:53:17.378Z,1011.73
2018-07-27T02:54:17.405Z,1011.72
2018-07-27T02:55:17.494Z,1011.8
2018-07-27T02:56:17.555Z,1011.79
2018-07-27T02:57:17.484Z,1011.77
2018-07-27T02:58:17.503Z,1011.79
2018-07-27T03:00:17.556Z,1011.85
2018-07-27T03:01:17.581Z,1011.86
2018-07-27T03:02:17.605Z,1011.83
2018-07-27T03:03:17.632Z,1011.84
2018-07-27T03:04:17.654Z,1011.88
2018-07-27T03:05:17.685Z,1011.85
2018-07-27T03:06:17.705Z,1011.9
2018-07-27T03:07:17.731Z,1011.91
2018-07-27T03:08:17.756Z,1011.87
2018-07-27T03:09:17.781Z,1011.89
2018-07-27T03:10:17.807Z,1011.89
2018-07-27T03:11:17.831Z,1011.93
2018-07-27T03:12:17.857Z,1011.92
2018-07-27T03:13:17.882Z,1011.95
2018-07-27T03:15:17.933Z,1011.96
2018-07-27T03:16:17.955Z,1011.96
2018-07-27T03:17:17.983Z,1011.94
2018-07-27T03:18:18.008Z,1011.94
2018-07-27T03:19:18.035Z,1011.96
2018-07-27T03:20:18.060Z,1011.96
2018-07-27T03:21:18.083Z,1012
2018-07-27T03:22:18.109Z,1012
2018-07-27T03:23:18.133Z,1011.97
2018-07-27T03:24:18.158Z,1011.98
2018-07-27T03:25:18.188Z,1011.99
2018-07-27T03:26:18.208Z,1011.98
2018-07-27T03:27:18.233Z,1011.96
2018-07-27T03:28:18.261Z,1012
2018-07-27T03:29:18.283Z,1011.95
2018-07-27T03:30:18.310Z,1011.99
2018-07-27T03:31:18.333Z,1011.97
2018-07-27T03:32:18.358Z,1011.97
2018-07-27T03:33:18.383Z,1011.97
2018-07-27T03:34:18.408Z,1011.98
2018-07-27T03:35:18.433Z,1012.01
2018-07-27T03:36:18.459Z,1011.98
2018-07-27T03:37:18.484Z,1012
2018-07-27T03:38:18.563Z,1011.97
2018-07-27T03:39:18.533Z,1011.99
2018-07-27T03:40:18.557Z,1012
2018-07-27T03:41:18.597Z,1011.97
2018-07-27T03:42:18.610Z,1011.97
2018-07-27T03:43:18.634Z,1011.97
2018-07-27T03:44:18.659Z,1012.02
2018-07-27T03:45:18.682Z,1012.01
2018-07-27T03:47:18.734Z,1012
2018-07-27T03:48:18.761Z,1012.05
2018-07-27T03:49:18.784Z,1012.05
2018-07-27T03:50:18.809Z,1012.06
2018-07-27T03:51:18.835Z,1012.06
2018-07-27T03:52:18.860Z,1012.08
2018-07-27T03:53:18.884Z,1012.1
2018-07-27T03:54:18.909Z,1012.12
2018-07-27T03:55:18.934Z,1012.11
2018-07-27T03:56:18.959Z,1012.12
2018-07-27T03:57:18.984Z,1012.08
2018-07-27T03:58:19.012Z,1012.12
2018-07-27T03:59:19.035Z,1012.12
2018-07-27T04:00:19.060Z,1012.06
2018-07-27T04:01:19.085Z,1012.05
2018-07-27T04:03:19.135Z,1012.07
2018-07-27T04:04:19.161Z,1012.09
2018-07-27T04:05:19.185Z,1012.08
2018-07-27T04:06:19.211Z,1012.12
2018-07-27T04:07:19.238Z,1012.11
2018-07-27T04:08:19.263Z,1012.11
2018-07-27T04:09:19.286Z,1012.11
2018-07-27T04:10:19.313Z,1012.08
2018-07-27T04:11:19.336Z,1012.07
2018-07-27T04:12:19.366Z,1012.04
2018-07-27T04:13:19.387Z,1012.1
2018-07-27T04:14:19.412Z,1012.09
2018-07-27T04:15:19.437Z,1012.05
2018-07-27T04:16:19.462Z,1012.05
2018-07-27T04:17:19.488Z,1012.08
2018-07-27T04:19:19.538Z,1012.09
2018-07-27T04:20:19.566Z,1012.1
2018-07-27T04:21:19.589Z,1012.08
2018-07-27T04:22:19.633Z,1012.11
2018-07-27T04:23:19.638Z,1012.12
2018-07-27T04:24:19.664Z,1012.15
2018-07-27T04:25:19.689Z,1012.09
2018-07-27T04:26:19.729Z,1012.12
2018-07-27T04:27:19.756Z,1012.08
2018-07-27T04:28:19.766Z,1012.11
2018-07-27T04:29:19.790Z,1012.06
2018-07-27T04:30:19.816Z,1012.12
2018-07-27T04:31:19.841Z,1012.13
2018-07-27T04:32:19.868Z,1012.1
2018-07-27T04:33:19.891Z,1012.12
2018-07-27T04:35:19.943Z,1012.1
2018-07-27T04:36:19.968Z,1012.09
2018-07-27T04:37:19.993Z,1012.11
2018-07-27T04:38:20.019Z,1012.08
2018-07-27T04:39:20.045Z,1012.07
2018-07-27T04:40:20.069Z,1012.1
2018-07-27T04:41:20.095Z,1012.08
2018-07-27T04:42:20.120Z,1012.09
2018-07-27T04:43:20.146Z,1012.11
2018-07-27T04:44:20.171Z,1012.12
2018-07-27T04:45:20.200Z,1012.15
2018-07-27T04:46:20.223Z,1012.11
2018-07-27T04:47:20.249Z,1012.09
2018-07-27T04:48:20.274Z,1012.1
2018-07-27T04:50:20.326Z,1012.11
2018-07-27T04:51:20.353Z,1012.12
2018-07-27T04:52:20.375Z,1012.19
2018-07-27T04:53:20.402Z,1012.2
2018-07-27T04:54:20.429Z,1012.26
2018-07-27T04:55:20.453Z,1012.35
2018-07-27T04:56:20.479Z,1012.38
2018-07-27T04:57:20.506Z,1012.39
2018-07-27T04:58:20.532Z,1012.38
2018-07-27T04:59:20.558Z,1012.4
2018-07-27T05:00:20.585Z,1012.38
2018-07-27T05:01:20.612Z,1012.43
2018-07-27T05:02:20.638Z,1012.46
2018-07-27T05:03:20.668Z,1012.48
2018-07-27T05:04:20.695Z,1012.49
2018-07-27T05:05:20.723Z,1012.55
2018-07-27T05:06:20.751Z,1012.56
2018-07-27T05:07:20.781Z,1012.59
2018-07-27T05:08:20.812Z,1012.62
2018-07-27T05:09:20.838Z,1012.61
2018-07-27T05:10:20.888Z,1012.66
2018-07-27T05:11:20.901Z,1012.71
2018-07-27T05:12:20.929Z,1012.76
2018-07-27T05:13:20.957Z,1012.83
2018-07-27T05:14:20.989Z,1012.83
2018-07-27T05:15:21.020Z,1012.81
2018-07-27T05:16:21.050Z,1012.81
2018-07-27T05:17:21.081Z,1012.85
2018-07-27T05:18:21.176Z,1012.86
2018-07-27T05:19:21.144Z,1012.85
2018-07-27T05:20:21.175Z,1012.84
2018-07-27T05:22:21.239Z,1012.89
2018-07-27T05:23:21.274Z,1012.86
2018-07-27T05:24:21.303Z,1012.9
2018-07-27T05:25:21.334Z,1012.9
2018-07-27T05:26:21.369Z,1012.99
2018-07-27T05:27:21.404Z,1012.99
2018-07-27T05:28:21.435Z,1012.93
2018-07-27T05:29:21.465Z,1012.97
2018-07-27T05:30:21.500Z,1013.01
2018-07-27T05:31:21.583Z,1012.97
2018-07-27T05:32:21.566Z,1012.93
2018-07-27T05:33:21.600Z,1012.96
2018-07-27T05:34:21.684Z,1012.97
2018-07-27T05:35:21.666Z,1012.99
2018-07-27T05:36:21.703Z,1012.97
2018-07-27T05:38:21.769Z,1012.95
2018-07-27T05:39:21.803Z,1012.97
2018-07-27T05:40:21.838Z,1012.96
2018-07-27T05:41:21.872Z,1012.96
2018-07-27T05:42:21.905Z,1013.01
2018-07-27T05:43:21.941Z,1013.03
2018-07-27T05:44:21.975Z,1013.01
2018-07-27T05:45:22.009Z,1012.99
2018-07-27T05:46:22.045Z,1013.01
2018-07-27T05:47:22.080Z,1012.99
2018-07-27T05:48:22.116Z,1013.02
2018-07-27T05:49:22.151Z,1013.01
2018-07-27T05:50:22.186Z,1012.99
2018-07-27T05:51:22.220Z,1013.01
2018-07-27T05:52:22.257Z,1012.99
2018-07-27T05:54:22.330Z,1012.99
2018-07-27T05:55:22.363Z,1012.93
2018-07-27T05:56:22.399Z,1012.93
2018-07-27T05:57:22.433Z,1012.88
2018-07-27T05:58:22.469Z,1012.84
2018-07-27T05:59:22.565Z,1012.87
2018-07-27T06:00:22.543Z,1012.88
2018-07-27T06:01:22.578Z,1012.89
2018-07-27T06:02:22.614Z,1012.89
2018-07-27T06:03:22.650Z,1012.89
2018-07-27T06:04:22.687Z,1012.91
2018-07-27T06:05:22.722Z,1012.9
2018-07-27T06:06:22.759Z,1012.87
2018-07-27T06:07:22.796Z,1012.89
2018-07-27T06:08:22.833Z,1012.89
2018-07-27T06:10:22.906Z,1012.94
2018-07-27T06:11:22.943Z,1012.96
2018-07-27T06:12:22.979Z,1013
2018-07-27T06:13:23.016Z,1012.99
2018-07-27T06:14:23.069Z,1013.06
2018-07-27T06:15:23.090Z,1013.12
2018-07-27T06:16:23.126Z,1013.19
2018-07-27T06:17:23.163Z,1013.22
2018-07-27T06:18:23.200Z,1013.3
2018-07-27T06:19:23.238Z,1013.37
2018-07-27T06:20:23.279Z,1013.33
2018-07-27T06:21:23.315Z,1013.34
2018-07-27T06:22:23.452Z,1013.38
2018-07-27T06:23:23.490Z,1013.45
2018-07-27T06:25:23.466Z,1013.45
2018-07-27T06:26:23.502Z,1013.49
2018-07-27T06:27:23.541Z,1013.47
2018-07-27T06:28:23.595Z,1013.47
2018-07-27T06:29:23.710Z,1013.42
2018-07-27T06:30:23.653Z,1013.42
2018-07-27T06:31:23.691Z,1013.4
2018-07-27T06:32:23.737Z,1013.37
2018-07-27T06:33:23.765Z,1013.33
2018-07-27T06:34:23.804Z,1013.36
2018-07-27T06:35:23.844Z,1013.36
2018-07-27T06:36:23.882Z,1013.3
2018-07-27T06:37:23.919Z,1013.28
2018-07-27T06:38:23.957Z,1013.28
2018-07-27T06:39:23.996Z,1013.25
2018-07-27T06:40:24.035Z,1013.28
2018-07-27T06:41:24.072Z,1013.27
2018-07-27T06:42:24.111Z,1013.31
2018-07-27T06:43:24.150Z,1013.34
2018-07-27T06:44:24.188Z,1013.28
2018-07-27T06:45:24.227Z,1013.32
2018-07-27T06:46:24.270Z,1013.31
2018-07-27T06:47:24.304Z,1013.32
2018-07-27T06:48:24.343Z,1013.36
2018-07-27T06:49:24.381Z,1013.36
2018-07-27T06:50:24.420Z,1013.36
2018-07-27T06:51:24.460Z,1013.29
2018-07-27T06:52:24.534Z,1013.14
2018-07-27T06:53:24.536Z,1013.05
2018-07-27T06:54:24.576Z,1013.04
2018-07-27T06:55:24.621Z,1013.06
2018-07-27T06:57:24.692Z,1013.06
2018-07-27T06:58:24.738Z,1013.09
2018-07-27T06:59:24.769Z,1013.09
2018-07-27T07:00:24.809Z,1013.15
2018-07-27T07:01:24.860Z,1013.14
2018-07-27T07:02:24.886Z,1013.13
2018-07-27T07:03:24.993Z,1013.14
2018-07-27T07:04:24.964Z,1013.12
2018-07-27T07:05:25.007Z,1013.18
2018-07-27T07:06:25.042Z,1013.11
2018-07-27T07:07:25.184Z,1013.17
2018-07-27T07:08:25.120Z,1013.15
2018-07-27T07:09:25.172Z,1013.17
2018-07-27T07:10:25.197Z,1013.19
2018-07-27T07:11:25.237Z,1013.18
2018-07-27T07:13:25.314Z,1013.23
2018-07-27T07:14:25.405Z,1013.19
2018-07-27T07:15:25.393Z,1013.2
2018-07-27T07:16:25.433Z,1013.2
2018-07-27T07:17:25.471Z,1013.22
2018-07-27T07:18:25.510Z,1013.33
2018-07-27T07:19:25.571Z,1013.77
2018-07-27T07:20:25.590Z,1014.22
2018-07-27T07:21:25.628Z,1014.33
2018-07-27T07:22:25.668Z,1014.29
2018-07-27T07:23:25.707Z,1014.34
2018-07-27T07:24:25.747Z,1014.27
2018-07-27T07:25:25.883Z,1014.22
2018-07-27T07:26:25.824Z,1014.13
2018-07-27T07:27:25.866Z,1014.11
2018-07-27T07:29:25.941Z,1014.09
2018-07-27T07:30:25.980Z,1014.12
2018-07-27T07:31:26.020Z,1014.09
2018-07-27T07:32:26.059Z,1014.04
2018-07-27T07:33:26.098Z,1014.04
2018-07-27T07:34:26.138Z,1013.97
2018-07-27T07:35:26.177Z,1013.89
2018-07-27T07:36:26.215Z,1013.83
2018-07-27T07:37:26.255Z,1013.83
2018-07-27T07:38:26.293Z,1013.8
2018-07-27T07:39:26.332Z,1013.82
2018-07-27T07:40:26.372Z,1013.78
2018-07-27T07:41:26.411Z,1013.71
2018-07-27T07:42:26.451Z,1013.67
2018-07-27T07:43:26.489Z,1013.65
2018-07-27T07:45:26.569Z,1013.56
2018-07-27T07:46:26.608Z,1013.52
2018-07-27T07:47:26.647Z,1013.55
2018-07-27T07:48:26.684Z,1013.5
2018-07-27T07:49:26.754Z,1013.46
2018-07-27T07:50:26.763Z,1013.52
2018-07-27T07:51:26.803Z,1013.47
2018-07-27T07:52:26.841Z,1013.47
2018-07-27T07:53:26.881Z,1013.43
2018-07-27T07:54:26.920Z,1013.4
2018-07-27T07:55:26.959Z,1013.45
2018-07-27T07:56:27.000Z,1013.39
2018-07-27T07:57:27.038Z,1013.39
2018-07-27T07:58:27.077Z,1013.33
2018-07-27T08:00:27.157Z,1013.25
2018-07-27T08:01:27.195Z,1013.26
2018-07-27T08:02:27.234Z,1013.26
2018-07-27T08:03:27.273Z,1013.28
2018-07-27T08:04:27.314Z,1013.24
2018-07-27T08:05:27.378Z,1013.17
2018-07-27T08:06:27.390Z,1013.21
2018-07-27T08:07:27.430Z,1013.23
2018-07-27T08:08:27.468Z,1013.15
2018-07-27T08:09:27.509Z,1013.15
2018-07-27T08:10:27.546Z,1013.14
2018-07-27T08:11:27.584Z,1013.15
2018-07-27T08:12:27.624Z,1013.11
2018-07-27T08:13:27.663Z,1013.08
2018-07-27T08:14:27.701Z,1013.08
2018-07-27T08:15:27.745Z,1013.03
2018-07-27T08:16:27.778Z,1013.02
2018-07-27T08:17:27.817Z,1013.04
2018-07-27T08:18:27.857Z,1013.06
2018-07-27T08:19:27.895Z,1013.03
2018-07-27T08:20:27.933Z,1013.01
2018-07-27T08:21:27.972Z,1013.04
2018-07-27T08:22:28.015Z,1013.06
2018-07-27T08:23:28.049Z,1013.05
2018-07-27T08:24:28.090Z,1013.03
2018-07-27T08:25:28.127Z,1012.96
2018-07-27T08:26:28.165Z,1012.96
2018-07-27T08:27:28.202Z,1012.94
2018-07-27T08:28:28.249Z,1012.92
2018-07-27T08:29:28.279Z,1012.88
2018-07-27T08:30:28.318Z,1012.87
2018-07-27T08:32:28.395Z,1012.81
2018-07-27T08:33:28.433Z,1012.77
2018-07-27T08:34:28.471Z,1012.69
2018-07-27T08:35:28.509Z,1012.73
2018-07-27T08:36:28.547Z,1012.69
2018-07-27T08:37:28.589Z,1012.67
2018-07-27T08:38:28.623Z,1012.74
2018-07-27T08:39:28.661Z,1012.78
2018-07-27T08:40:28.699Z,1012.8
2018-07-27T08:41:28.737Z,1012.84
2018-07-27T08:42:28.775Z,1012.92
2018-07-27T08:43:28.813Z,1012.92
2018-07-27T08:44:28.852Z,1012.91
2018-07-27T08:45:28.889Z,1012.81
2018-07-27T08:46:28.927Z,1012.79
2018-07-27T08:48:29.002Z,1012.69
2018-07-27T08:49:29.040Z,1012.67
2018-07-27T08:50:29.079Z,1012.71
2018-07-27T08:51:29.116Z,1012.66
2018-07-27T08:52:29.154Z,1012.63
2018-07-27T08:53:29.191Z,1012.6
2018-07-27T08:54:29.232Z,1012.33
2018-07-27T08:55:29.267Z,1012.56
2018-07-27T08:56:29.305Z,1012.17
2018-07-27T08:57:29.342Z,1012.16
2018-07-27T08:58:29.380Z,1012.12
2018-07-27T08:59:29.418Z,1012.36
2018-07-27T09:00:29.454Z,1012.36
2018-07-27T09:01:29.492Z,1012.37
2018-07-27T09:02:29.532Z,1012.35
2018-07-27T09:04:29.601Z,1012.32
2018-07-27T09:05:29.638Z,1012.26
2018-07-27T09:06:29.700Z,1012.09
2018-07-27T09:07:29.713Z,1012.1
2018-07-27T09:08:29.751Z,1012.11
2018-07-27T09:09:29.788Z,1012.11
2018-07-27T09:10:29.826Z,1012.22
2018-07-27T09:11:29.867Z,1012.13
2018-07-27T09:12:29.896Z,1012.11
2018-07-27T09:13:29.936Z,1012.15
2018-07-27T09:14:29.970Z,1012.09
2018-07-27T09:15:30.007Z,1012.2
2018-07-27T09:16:30.043Z,1012.11
2018-07-27T09:17:30.080Z,1012.09
2018-07-27T09:18:30.115Z,1012.05
2018-07-27T09:20:30.188Z,1011.99
2018-07-27T09:21:30.222Z,1012.02
2018-07-27T09:22:30.256Z,1012.07
2018-07-27T09:23:30.293Z,1012.15
2018-07-27T09:24:30.575Z,1012.08
2018-07-27T09:25:30.362Z,1012.07
2018-07-27T09:26:30.397Z,1012.05
2018-07-27T09:27:30.433Z,1012.07
2018-07-27T09:28:30.467Z,1012.02
2018-07-27T09:29:30.502Z,1012.01
2018-07-27T09:30:30.538Z,1012.05
2018-07-27T09:31:30.573Z,1011.99
2018-07-27T09:32:30.608Z,1011.99
2018-07-27T09:33:30.644Z,1012.04
2018-07-27T09:35:30.779Z,1011.93
2018-07-27T09:36:30.750Z,1011.99
2018-07-27T09:37:30.784Z,1011.99
2018-07-27T09:38:30.819Z,1011.92
2018-07-27T09:39:30.858Z,1011.9
2018-07-27T09:40:30.929Z,1011.86
2018-07-27T09:41:30.924Z,1011.88
2018-07-27T09:42:30.960Z,1011.93
2018-07-27T09:43:30.994Z,1011.95
2018-07-27T09:44:31.032Z,1011.91
2018-07-27T09:45:31.065Z,1011.91
2018-07-27T09:46:31.140Z,1011.88
2018-07-27T09:47:31.134Z,1011.92
2018-07-27T09:48:31.170Z,1011.88
2018-07-27T09:49:31.206Z,1011.89
2018-07-27T09:50:31.241Z,1011.9
2018-07-27T09:51:31.297Z,1011.91
2018-07-27T09:52:31.312Z,1011.83
2018-07-27T09:53:31.345Z,1011.9
2018-07-27T09:54:31.380Z,1011.88
2018-07-27T09:55:31.417Z,1011.99
2018-07-27T09:56:31.452Z,1011.86
2018-07-27T09:57:31.546Z,1011.91
2018-07-27T09:58:31.523Z,1011.93
2018-07-27T09:59:31.558Z,1011.91
2018-07-27T10:00:31.594Z,1011.84
2018-07-27T10:01:31.629Z,1011.86
2018-07-27T10:02:31.662Z,1011.86
2018-07-27T10:03:31.698Z,1011.82
2018-07-27T10:04:31.837Z,1011.81
2018-07-27T10:05:31.766Z,1011.84
2018-07-27T10:07:31.838Z,1011.72
2018-07-27T10:08:31.872Z,1011.76
2018-07-27T10:09:31.907Z,1011.77
2018-07-27T10:10:31.942Z,1011.75
2018-07-27T10:11:31.976Z,1011.72
2018-07-27T10:12:32.011Z,1011.66
2018-07-27T10:13:32.047Z,1011.68
2018-07-27T10:14:32.082Z,1011.62
2018-07-27T10:15:32.117Z,1011.61
2018-07-27T10:16:32.150Z,1011.6
2018-07-27T10:17:32.186Z,1011.59
2018-07-27T10:18:32.279Z,1011.64
2018-07-27T10:19:32.256Z,1011.6
2018-07-27T10:20:32.289Z,1011.63
2018-07-27T10:21:32.325Z,1011.66
2018-07-27T10:23:32.395Z,1011.71
2018-07-27T10:24:32.428Z,1011.59
2018-07-27T10:25:32.461Z,1011.57
2018-07-27T10:26:32.497Z,1011.53
2018-07-27T10:27:32.533Z,1011.52
2018-07-27T10:28:32.566Z,1011.48
2018-07-27T10:29:32.600Z,1011.59
2018-07-27T10:30:32.636Z,1011.51
2018-07-27T10:31:32.668Z,1011.43
2018-07-27T10:32:32.703Z,1011.46
2018-07-27T10:33:32.739Z,1011.39
2018-07-27T10:34:32.773Z,1011.41
2018-07-27T10:35:32.806Z,1011.42
2018-07-27T10:36:32.840Z,1011.5
2018-07-27T10:37:32.876Z,1011.5
2018-07-27T10:39:32.945Z,1011.51
2018-07-27T10:40:32.980Z,1011.43
2018-07-27T10:41:33.014Z,1011.39
2018-07-27T10:42:33.046Z,1011.44
2018-07-27T10:43:33.082Z,1011.37
2018-07-27T10:44:33.116Z,1011.46
2018-07-27T10:45:33.150Z,1011.39
2018-07-27T10:46:33.184Z,1011.4
2018-07-27T10:47:33.218Z,1011.4
2018-07-27T10:48:33.252Z,1011.39
2018-07-27T10:49:33.287Z,1011.39
2018-07-27T10:50:33.321Z,1011.4
2018-07-27T10:51:33.355Z,1011.39
2018-07-27T10:52:33.391Z,1011.37
2018-07-27T10:53:33.424Z,1011.38
2018-07-27T10:55:33.491Z,1011.29
2018-07-27T10:56:33.525Z,1011.3
2018-07-27T10:57:33.560Z,1011.24
2018-07-27T10:58:33.593Z,1011.27
2018-07-27T10:59:33.631Z,1011.22
2018-07-27T11:00:33.661Z,1011.19
2018-07-27T11:01:33.695Z,1011.27
2018-07-27T11:02:33.730Z,1011.23
2018-07-27T11:03:33.764Z,1011.26
2018-07-27T11:04:33.797Z,1011.24
2018-07-27T11:05:33.832Z,1011.24
2018-07-27T11:06:33.864Z,1011.18
2018-07-27T11:07:33.899Z,1011.21
2018-07-27T11:08:33.932Z,1011.23
2018-07-27T11:10:34.002Z,1011.2
2018-07-27T11:11:34.032Z,1011.17
2018-07-27T11:12:34.065Z,1011.15
2018-07-27T11:13:34.097Z,1011.08
2018-07-27T11:14:34.132Z,1011.09
2018-07-27T11:15:34.165Z,1011.06
2018-07-27T11:16:34.199Z,1011
2018-07-27T11:17:34.262Z,1010.97
2018-07-27T11:18:34.265Z,1010.94
2018-07-27T11:19:34.299Z,1010.95
2018-07-27T11:20:34.331Z,1010.88
2018-07-27T11:21:34.365Z,1010.87
2018-07-27T11:22:34.397Z,1010.85
2018-07-27T11:23:34.430Z,1010.86
2018-07-27T11:24:34.469Z,1010.92
2018-07-27T11:25:34.559Z,1010.93
2018-07-27T11:26:34.529Z,1010.88
2018-07-27T11:27:34.562Z,1010.87
2018-07-27T11:28:34.596Z,1010.88
2018-07-27T11:29:34.628Z,1010.94
2018-07-27T11:30:34.661Z,1010.79
2018-07-27T11:31:34.697Z,1010.8
2018-07-27T11:32:34.727Z,1010.78
2018-07-27T11:33:34.758Z,1010.78
2018-07-27T11:34:34.791Z,1010.78
2018-07-27T11:35:34.826Z,1010.73
2018-07-27T11:36:34.858Z,1010.68
2018-07-27T11:37:34.894Z,1010.63
2018-07-27T11:38:34.923Z,1010.66
2018-07-27T11:39:34.957Z,1010.65
2018-07-27T11:40:34.993Z,1010.64
2018-07-27T11:42:35.108Z,1010.57
2018-07-27T11:43:35.087Z,1010.54
2018-07-27T11:44:35.119Z,1010.51
2018-07-27T11:45:35.152Z,1010.53
2018-07-27T11:46:35.186Z,1010.45
2018-07-27T11:47:35.219Z,1010.5
2018-07-27T11:48:35.249Z,1010.5
2018-07-27T11:49:35.375Z,1010.51
2018-07-27T11:50:35.317Z,1010.48
2018-07-27T11:51:35.349Z,1010.48
2018-07-27T11:52:35.379Z,1010.47
2018-07-27T11:53:35.423Z,1010.43
2018-07-27T11:54:35.444Z,1010.44
2018-07-27T11:55:35.475Z,1010.51
2018-07-27T11:56:35.508Z,1010.52
2018-07-27T11:58:35.580Z,1010.41
2018-07-27T11:59:35.605Z,1010.39
2018-07-27T12:00:35.639Z,1010.38
2018-07-27T12:01:35.719Z,1010.41
2018-07-27T12:02:35.702Z,1010.36
2018-07-27T12:03:35.733Z,1010.38
2018-07-27T12:04:35.766Z,1010.34
2018-07-27T12:05:35.798Z,1010.33
2018-07-27T12:06:35.829Z,1010.35
2018-07-27T12:07:35.864Z,1010.37
2018-07-27T12:08:35.894Z,1010.4
2018-07-27T12:09:35.926Z,1010.32
2018-07-27T12:10:35.957Z,1010.33
2018-07-27T12:11:35.989Z,1010.33
2018-07-27T12:12:36.022Z,1010.34
2018-07-27T12:14:36.304Z,1010.27
2018-07-27T12:15:36.116Z,1010.24
2018-07-27T12:16:36.149Z,1010.27
2018-07-27T12:17:36.183Z,1010.15
2018-07-27T12:18:36.213Z,1010.1
2018-07-27T12:19:36.245Z,1010.24
2018-07-27T12:20:36.354Z,1010.2
2018-07-27T12:21:36.560Z,1010.16
2018-07-27T12:22:36.340Z,1010.14
2018-07-27T12:23:36.372Z,1010.16
2018-07-27T12:24:36.404Z,1010.12
2018-07-27T12:25:36.435Z,1010.09
2018-07-27T12:26:36.469Z,1010.05
2018-07-27T12:27:36.502Z,1010.08
2018-07-27T12:28:36.530Z,1010.16
2018-07-27T12:30:36.596Z,1010.03
2018-07-27T12:31:36.632Z,1010.01
2018-07-27T12:32:36.662Z,1010.07
2018-07-27T12:33:36.691Z,1010.01
2018-07-27T12:34:36.723Z,1009.97
2018-07-27T12:35:36.755Z,1009.95
2018-07-27T12:36:36.787Z,1009.95
2018-07-27T12:37:36.819Z,1009.95
2018-07-27T12:38:36.851Z,1009.97
2018-07-27T12:39:36.881Z,1009.94
2018-07-27T12:40:36.915Z,1009.96
2018-07-27T12:41:36.948Z,1010.01
2018-07-27T12:42:36.999Z,1009.9
2018-07-27T12:43:37.011Z,1009.98
2018-07-27T12:45:37.076Z,1010.02
2018-07-27T12:46:37.110Z,1009.98
2018-07-27T12:47:37.142Z,1009.97
2018-07-27T12:48:37.171Z,1009.95
2018-07-27T12:49:37.211Z,1009.97